< < Back
Terminal Aerodrome Forecast


Current Version              Previous Versions:   1  2  3  4  5  6  7  8  9  

Terminal Aerodrome Forecast

995
FTUS42 KFFC 171100
TAFMCN
TAF
KMCN 171126Z 1712/1812 08008KT P6SM SCT035 BKN250
     FM171500 08010G18KT P6SM SCT035 BKN250
     FM172200 08010G18KT P6SM BKN040
     FM180900 06009KT P6SM BKN025
     FM181100 05008KT P6SM OVC009=



Latest METAR

157
SAUS80 KWBC 180300 RRB
MTRMCN
METAR KMCN 180253Z AUTO 07006KT 10SM OVC055 15/07 A3030 RMK AO2 SLP259
T01500072 50001 TSNO


USA.gov is the U.S. government's official web portal to all federal, state and local government web resources and services.